createdAt,value
2019-02-01T00:00:02.004Z,13.03
2019-02-01T00:00:46.315Z,13.05
2019-02-01T00:01:25.644Z,12.78
2019-02-01T00:02:02.243Z,13.43
2019-02-01T00:02:37.779Z,12.75
2019-02-01T00:03:13.649Z,13.23
2019-02-01T00:03:49.211Z,12.23
2019-02-01T00:04:24.883Z,13.15
2019-02-01T00:05:01.410Z,12.28
2019-02-01T00:05:37.283Z,12.50
2019-02-01T00:06:13.092Z,12.97
2019-02-01T00:06:48.626Z,12.47
2019-02-01T00:07:24.466Z,12.45
2019-02-01T00:08:00.962Z,12.18
2019-02-01T00:08:36.517Z,12.70
2019-02-01T00:09:12.439Z,12.73
2019-02-01T00:09:48.019Z,11.70
2019-02-01T00:10:23.594Z,12.27
2019-02-01T00:10:59.428Z,11.43
2019-02-01T00:11:34.972Z,12.47
2019-02-01T00:12:10.527Z,12.50
2019-02-01T00:12:46.106Z,12.37
2019-02-01T00:13:22.032Z,12.87
2019-02-01T00:13:58.291Z,11.87
2019-02-01T00:14:33.849Z,12.37
2019-02-01T00:15:09.399Z,11.73
2019-02-01T00:15:44.959Z,12.33
2019-02-01T00:16:20.501Z,12.05
2019-02-01T00:16:56.047Z,12.03
2019-02-01T00:17:31.834Z,11.77
2019-02-01T00:18:07.429Z,12.20
2019-02-01T00:18:43.952Z,12.40
2019-02-01T00:19:19.771Z,11.65
2019-02-01T00:19:55.302Z,12.20
2019-02-01T00:20:30.843Z,11.90
2019-02-01T00:21:06.398Z,11.43
2019-02-01T00:21:42.335Z,11.53
2019-02-01T00:22:17.882Z,11.68
2019-02-01T00:22:53.459Z,12.00
2019-02-01T00:23:28.991Z,11.78
2019-02-01T00:24:04.996Z,10.93
2019-02-01T00:24:40.528Z,11.70
2019-02-01T00:25:16.059Z,12.07
2019-02-01T00:25:51.616Z,11.43
2019-02-01T00:26:27.208Z,11.45
2019-02-01T00:27:02.745Z,11.50
2019-02-01T00:27:38.434Z,11.13
2019-02-01T00:28:13.968Z,11.68
2019-02-01T00:28:50.073Z,11.37
2019-02-01T00:29:25.716Z,11.20
2019-02-01T00:30:01.556Z,10.70
2019-02-01T00:30:37.188Z,11.35
2019-02-01T00:31:13.012Z,11.15
2019-02-01T00:31:48.580Z,11.18
2019-02-01T00:32:25.215Z,11.00
2019-02-01T00:33:00.762Z,10.80
2019-02-01T00:33:36.816Z,11.38
2019-02-01T00:34:12.473Z,10.50
2019-02-01T00:34:48.631Z,10.70
2019-02-01T00:35:24.173Z,10.70
2019-02-01T00:35:59.716Z,10.75
2019-02-01T00:36:35.372Z,11.10
2019-02-01T00:37:11.530Z,10.90
2019-02-01T00:37:47.095Z,10.28
2019-02-01T00:38:22.631Z,10.27
2019-02-01T00:38:58.245Z,10.75
2019-02-01T00:39:33.793Z,10.60
2019-02-01T00:40:09.343Z,11.48
2019-02-01T00:40:44.937Z,10.48
2019-02-01T00:41:20.797Z,10.23
2019-02-01T00:41:56.402Z,10.33
2019-02-01T00:42:31.975Z,10.28
2019-02-01T00:43:07.530Z,10.30
2019-02-01T00:43:43.728Z,10.45
2019-02-01T00:44:19.547Z,10.23
2019-02-01T00:44:56.062Z,10.70
2019-02-01T00:45:31.684Z,11.03
2019-02-01T00:46:07.341Z,10.00
2019-02-01T00:46:43.165Z,9.93
2019-02-01T00:47:18.671Z,10.27
2019-02-01T00:47:54.203Z,10.25
2019-02-01T00:48:29.726Z,9.87
2019-02-01T00:49:05.271Z,10.13
2019-02-01T00:49:41.128Z,9.27
2019-02-01T00:50:16.676Z,9.83
2019-02-01T00:50:52.219Z,9.73
2019-02-01T00:51:27.758Z,9.53
2019-02-01T00:52:04.307Z,10.05
2019-02-01T00:52:39.845Z,9.73
2019-02-01T00:53:16.761Z,9.45
2019-02-01T00:53:53.042Z,9.80
2019-02-01T00:54:28.558Z,10.50
2019-02-01T00:55:04.444Z,9.90
2019-02-01T00:55:40.347Z,10.45
2019-02-01T00:56:15.893Z,10.20
2019-02-01T00:56:51.413Z,9.90
2019-02-01T00:57:27.078Z,10.08
2019-02-01T00:58:02.643Z,9.37
2019-02-01T00:58:38.472Z,10.23
2019-02-01T00:59:14.004Z,9.97
2019-02-01T00:59:49.528Z,10.20
2019-02-01T01:00:25.254Z,9.63
2019-02-01T01:01:00.834Z,10.10
2019-02-01T01:01:36.370Z,9.50
2019-02-01T01:02:11.924Z,9.70
2019-02-01T01:02:47.456Z,10.73
2019-02-01T01:03:23.199Z,10.10
2019-02-01T01:03:58.863Z,9.60
2019-02-01T01:04:34.519Z,9.93
2019-02-01T01:05:10.387Z,10.03
2019-02-01T01:05:45.981Z,9.80
2019-02-01T01:06:21.524Z,9.67
2019-02-01T01:06:57.100Z,9.97
2019-02-01T01:07:32.614Z,10.20
2019-02-01T01:08:08.132Z,10.03
2019-02-01T01:08:43.689Z,10.68
2019-02-01T01:09:19.253Z,9.83
2019-02-01T01:09:54.991Z,10.20
2019-02-01T01:10:30.529Z,9.87
2019-02-01T01:11:06.501Z,10.35
2019-02-01T01:11:42.359Z,10.30
2019-02-01T01:12:17.968Z,9.93
2019-02-01T01:12:53.819Z,10.33
2019-02-01T01:13:30.069Z,9.90
2019-02-01T01:14:05.788Z,9.70
2019-02-01T01:14:41.357Z,9.97
2019-02-01T01:15:17.013Z,10.10
2019-02-01T01:15:52.563Z,9.98
2019-02-01T01:16:28.199Z,10.17
2019-02-01T01:17:03.721Z,9.63
2019-02-01T01:17:39.274Z,10.15
2019-02-01T01:18:23.484Z,10.30
2019-02-01T01:18:52.348Z,10.43
2019-02-01T01:19:27.883Z,9.97
2019-02-01T01:20:03.479Z,10.03
2019-02-01T01:20:39.107Z,10.73
2019-02-01T01:21:14.926Z,10.07
2019-02-01T01:21:50.467Z,10.48
2019-02-01T01:22:26.041Z,10.75
2019-02-01T01:23:01.650Z,10.68
2019-02-01T01:23:37.223Z,10.30
2019-02-01T01:24:13.432Z,10.27
2019-02-01T01:24:48.967Z,10.63
2019-02-01T01:25:24.915Z,10.17
2019-02-01T01:26:00.451Z,9.85
2019-02-01T01:26:36.001Z,10.40
2019-02-01T01:27:11.542Z,10.10
2019-02-01T01:27:47.112Z,10.30
2019-02-01T01:28:22.671Z,9.90
2019-02-01T01:28:58.225Z,10.37
2019-02-01T01:29:33.785Z,10.48
2019-02-01T01:30:12.497Z,9.93
2019-02-01T01:30:48.400Z,10.43
2019-02-01T01:31:24.234Z,10.72
2019-02-01T01:31:59.792Z,9.90
2019-02-01T01:32:35.422Z,10.53
2019-02-01T01:33:11.292Z,10.38
2019-02-01T01:33:46.830Z,10.68
2019-02-01T01:34:22.379Z,10.00
2019-02-01T01:34:57.911Z,10.63
2019-02-01T01:35:33.476Z,10.03
2019-02-01T01:36:09.299Z,9.97
2019-02-01T01:36:45.115Z,10.53
2019-02-01T01:37:20.679Z,10.30
2019-02-01T01:37:56.472Z,10.78
2019-02-01T01:38:32.341Z,10.32
2019-02-01T01:39:08.367Z,10.00
2019-02-01T01:39:44.358Z,10.60
2019-02-01T01:40:20.219Z,11.00
2019-02-01T01:40:55.799Z,10.93
2019-02-01T01:41:31.328Z,10.30
2019-02-01T01:42:06.871Z,11.40
2019-02-01T01:42:42.772Z,11.28
2019-02-01T01:43:18.583Z,10.43
2019-02-01T01:43:54.146Z,10.55
2019-02-01T01:44:29.654Z,10.73
2019-02-01T01:45:07.271Z,10.75
2019-02-01T01:45:43.050Z,10.53
2019-02-01T01:46:18.927Z,10.53
2019-02-01T01:46:54.572Z,10.95
2019-02-01T01:47:30.140Z,10.67
2019-02-01T01:48:05.856Z,11.00
2019-02-01T01:48:41.458Z,10.45
2019-02-01T01:49:17.645Z,11.08
2019-02-01T01:49:53.548Z,10.37
2019-02-01T01:50:29.376Z,11.30
2019-02-01T01:51:04.951Z,11.05
2019-02-01T01:51:40.602Z,10.60
2019-02-01T01:52:16.226Z,10.32
2019-02-01T01:52:52.123Z,11.22
2019-02-01T01:53:27.668Z,11.43
2019-02-01T01:54:03.222Z,10.57
2019-02-01T01:54:38.757Z,10.98
2019-02-01T01:55:14.333Z,10.68
2019-02-01T01:55:50.928Z,10.35
2019-02-01T01:56:26.533Z,10.60
2019-02-01T01:57:02.356Z,11.00
2019-02-01T01:57:37.886Z,11.57
2019-02-01T01:58:13.404Z,11.50
2019-02-01T01:58:49.226Z,10.43
2019-02-01T01:59:24.868Z,11.38
2019-02-01T02:00:00.486Z,10.50
2019-02-01T02:00:36.326Z,10.28
2019-02-01T02:01:12.155Z,10.90
2019-02-01T02:01:47.959Z,10.95
2019-02-01T02:02:23.627Z,10.70
2019-02-01T02:02:59.409Z,10.85
2019-02-01T02:03:35.031Z,11.30
2019-02-01T02:04:11.015Z,10.73
2019-02-01T02:04:46.920Z,11.00
2019-02-01T02:05:22.740Z,10.93
2019-02-01T02:05:58.651Z,11.07
2019-02-01T02:06:34.262Z,11.22
2019-02-01T02:07:09.862Z,10.77
2019-02-01T02:07:45.856Z,10.58
2019-02-01T02:08:21.480Z,11.17
2019-02-01T02:08:57.263Z,10.90
2019-02-01T02:09:33.425Z,10.80
2019-02-01T02:10:08.992Z,11.00
2019-02-01T02:10:44.516Z,10.17
2019-02-01T02:11:20.396Z,11.33
2019-02-01T02:11:55.935Z,11.00
2019-02-01T02:12:31.527Z,11.10
2019-02-01T02:13:07.435Z,10.90
2019-02-01T02:13:42.995Z,10.88
2019-02-01T02:14:18.640Z,10.95
2019-02-01T02:14:54.206Z,11.25
2019-02-01T02:15:29.767Z,10.88
2019-02-01T02:16:05.375Z,10.20
2019-02-01T02:16:40.951Z,10.88
2019-02-01T02:17:17.609Z,10.48
2019-02-01T02:17:53.300Z,10.75
2019-02-01T02:18:29.080Z,11.08
2019-02-01T02:19:04.636Z,10.30
2019-02-01T02:19:40.411Z,10.48
2019-02-01T02:20:17.458Z,11.50
2019-02-01T02:20:53.095Z,11.12
2019-02-01T02:21:28.895Z,11.30
2019-02-01T02:22:04.799Z,11.05
2019-02-01T02:22:40.356Z,11.18
2019-02-01T02:23:16.000Z,10.95
2019-02-01T02:23:51.499Z,11.10
2019-02-01T02:24:27.204Z,10.80
2019-02-01T02:25:02.787Z,11.15
2019-02-01T02:25:38.328Z,11.23
2019-02-01T02:26:13.921Z,11.20
2019-02-01T02:26:49.447Z,10.88
2019-02-01T02:27:25.321Z,11.63
2019-02-01T02:28:00.876Z,11.20
2019-02-01T02:28:37.381Z,10.38
2019-02-01T02:29:12.904Z,11.40
2019-02-01T02:29:48.435Z,11.00
2019-02-01T02:30:25.640Z,11.00
2019-02-01T02:31:01.480Z,10.77
2019-02-01T02:31:37.879Z,11.57
2019-02-01T02:32:13.438Z,11.50
2019-02-01T02:32:49.076Z,11.30
2019-02-01T02:33:24.619Z,11.27
2019-02-01T02:34:00.223Z,10.93
2019-02-01T02:34:36.272Z,11.22
2019-02-01T02:35:11.863Z,11.70
2019-02-01T02:35:47.392Z,11.57
2019-02-01T02:36:23.012Z,11.60
2019-02-01T02:36:58.539Z,11.40
2019-02-01T02:37:34.376Z,11.03
2019-02-01T02:38:10.039Z,11.80
2019-02-01T02:38:45.623Z,11.40
2019-02-01T02:39:21.429Z,11.10
2019-02-01T02:39:57.504Z,11.97
2019-02-01T02:40:33.502Z,11.33
2019-02-01T02:41:09.030Z,11.63
2019-02-01T02:41:44.639Z,11.73
2019-02-01T02:42:20.586Z,11.80
2019-02-01T02:42:56.184Z,11.27
2019-02-01T02:43:31.711Z,12.27
2019-02-01T02:44:07.272Z,11.93
2019-02-01T02:44:43.039Z,12.00
2019-02-01T02:45:18.784Z,11.97
2019-02-01T02:45:54.356Z,12.35
2019-02-01T02:46:29.896Z,12.95
2019-02-01T02:47:05.447Z,12.63
2019-02-01T02:47:41.469Z,12.60
2019-02-01T02:48:17.115Z,11.85
2019-02-01T02:49:00.010Z,12.70
2019-02-01T02:49:30.134Z,13.10
2019-02-01T02:50:07.494Z,13.07
2019-02-01T02:50:43.292Z,12.40
2019-02-01T02:51:18.848Z,12.10
2019-02-01T02:51:54.415Z,12.80
2019-02-01T02:52:30.229Z,12.70
2019-02-01T02:53:05.832Z,13.23
2019-02-01T02:53:41.345Z,12.67
2019-02-01T02:54:16.896Z,12.82
2019-02-01T02:54:52.406Z,13.43
2019-02-01T02:55:28.931Z,13.33
2019-02-01T02:56:05.169Z,12.43
2019-02-01T02:56:41.109Z,12.77
2019-02-01T02:57:16.706Z,12.60
2019-02-01T02:57:52.625Z,13.40
2019-02-01T02:58:28.436Z,12.28
2019-02-01T02:59:04.590Z,12.77
2019-02-01T02:59:40.135Z,12.27
2019-02-01T03:00:24.148Z,13.13
2019-02-01T03:00:59.958Z,12.30
2019-02-01T03:01:35.487Z,11.70
2019-02-01T03:02:11.564Z,12.00
2019-02-01T03:02:47.101Z,12.70
2019-02-01T03:03:22.635Z,12.53
2019-02-01T03:03:58.539Z,13.57
2019-02-01T03:04:34.125Z,13.13
2019-02-01T03:05:09.687Z,13.58
2019-02-01T03:05:45.233Z,13.80
2019-02-01T03:06:20.755Z,13.50
2019-02-01T03:06:56.292Z,13.67
2019-02-01T03:07:35.512Z,13.78
2019-02-01T03:08:11.788Z,13.68
2019-02-01T03:08:47.760Z,12.73
2019-02-01T03:09:23.372Z,13.33
2019-02-01T03:09:58.911Z,14.13
2019-02-01T03:10:34.694Z,14.10
2019-02-01T03:11:10.551Z,14.10
2019-02-01T03:11:46.256Z,14.83
2019-02-01T03:12:21.771Z,14.18
2019-02-01T03:12:57.495Z,13.78
2019-02-01T03:13:33.144Z,13.75
2019-02-01T03:14:08.731Z,13.93
2019-02-01T03:14:44.286Z,13.93
2019-02-01T03:15:20.441Z,15.23
2019-02-01T03:15:56.017Z,14.87
2019-02-01T03:16:31.568Z,13.83
2019-02-01T03:17:07.099Z,13.97
2019-02-01T03:17:42.806Z,14.90
2019-02-01T03:18:18.386Z,14.33
2019-02-01T03:18:53.993Z,14.63
2019-02-01T03:19:29.877Z,14.15
2019-02-01T03:20:06.128Z,15.10
2019-02-01T03:20:41.898Z,14.50
2019-02-01T03:21:17.567Z,13.38
2019-02-01T03:21:53.098Z,14.45
2019-02-01T03:22:28.642Z,15.83
2019-02-01T03:23:04.492Z,15.60
2019-02-01T03:23:39.998Z,15.30
2019-02-01T03:24:15.517Z,16.80
2019-02-01T03:24:51.343Z,14.50
2019-02-01T03:25:27.013Z,13.97
2019-02-01T03:26:02.535Z,15.13
2019-02-01T03:26:38.372Z,14.37
2019-02-01T03:27:13.894Z,15.40
2019-02-01T03:27:49.432Z,15.37
2019-02-01T03:28:24.996Z,14.60
2019-02-01T03:29:00.583Z,14.83
2019-02-01T03:29:36.795Z,14.83
2019-02-01T03:30:15.827Z,15.20
2019-02-01T03:30:51.331Z,15.10
2019-02-01T03:31:26.955Z,15.50
2019-02-01T03:32:02.773Z,16.40
2019-02-01T03:32:38.540Z,15.27
2019-02-01T03:33:14.338Z,15.40
2019-02-01T03:33:49.852Z,15.40
2019-02-01T03:34:25.404Z,16.80
2019-02-01T03:35:00.900Z,16.77
2019-02-01T03:35:37.412Z,16.43
2019-02-01T03:36:12.947Z,17.37
2019-02-01T03:36:48.572Z,16.23
2019-02-01T03:37:24.127Z,16.63
2019-02-01T03:37:59.747Z,15.77
2019-02-01T03:38:35.778Z,15.20
2019-02-01T03:39:11.368Z,17.25
2019-02-01T03:39:46.896Z,16.83
2019-02-01T03:40:22.627Z,15.57
2019-02-01T03:40:58.419Z,17.20
2019-02-01T03:41:34.260Z,16.60
2019-02-01T03:42:09.786Z,16.10
2019-02-01T03:42:45.338Z,16.90
2019-02-01T03:43:21.208Z,16.53
2019-02-01T03:43:56.828Z,17.30
2019-02-01T03:44:32.848Z,16.63
2019-02-01T03:45:10.358Z,16.48
2019-02-01T03:45:45.917Z,16.83
2019-02-01T03:46:21.835Z,19.67
2019-02-01T03:46:57.383Z,17.87
2019-02-01T03:47:32.918Z,15.83
2019-02-01T03:48:08.510Z,18.57
2019-02-01T03:48:44.116Z,17.70
2019-02-01T03:49:25.857Z,18.07
2019-02-01T03:49:57.285Z,17.10
2019-02-01T03:50:32.891Z,17.03
2019-02-01T03:51:08.456Z,17.23
2019-02-01T03:51:44.240Z,17.80
2019-02-01T03:52:19.796Z,17.63
2019-02-01T03:52:55.331Z,17.13
2019-02-01T03:53:30.883Z,18.90
2019-02-01T03:54:06.440Z,19.12
2019-02-01T03:54:41.969Z,19.17
2019-02-01T03:55:18.283Z,18.97
2019-02-01T03:55:53.810Z,18.40
2019-02-01T03:56:29.462Z,19.63
2019-02-01T03:57:04.988Z,18.47
2019-02-01T03:57:40.787Z,20.27
2019-02-01T03:58:16.334Z,18.47
2019-02-01T03:58:52.388Z,17.87
2019-02-01T03:59:28.203Z,18.70
2019-02-01T04:00:04.755Z,19.77
2019-02-01T04:00:40.320Z,18.87
2019-02-01T04:01:15.843Z,19.20
2019-02-01T04:01:51.931Z,18.67
2019-02-01T04:02:27.731Z,18.83
2019-02-01T04:03:04.231Z,20.40
2019-02-01T04:03:40.009Z,18.03
2019-02-01T04:04:15.563Z,20.17
2019-02-01T04:04:51.095Z,19.57
2019-02-01T04:05:26.669Z,17.60
2019-02-01T04:06:02.479Z,18.37
2019-02-01T04:06:38.203Z,18.33
2019-02-01T04:07:16.573Z,17.07
2019-02-01T04:07:51.080Z,20.13
2019-02-01T04:08:26.939Z,20.00
2019-02-01T04:09:03.763Z,19.90
2019-02-01T04:09:40.598Z,20.23
2019-02-01T04:10:18.098Z,19.50
2019-02-01T04:10:53.659Z,18.60
2019-02-01T04:11:29.212Z,19.13
2019-02-01T04:12:04.812Z,18.07
2019-02-01T04:12:40.453Z,20.27
2019-02-01T04:13:16.053Z,21.23
2019-02-01T04:13:51.579Z,20.60
2019-02-01T04:14:27.391Z,18.90
2019-02-01T04:15:02.906Z,21.25
2019-02-01T04:15:38.690Z,22.02
2019-02-01T04:16:14.233Z,23.50
2019-02-01T04:16:49.807Z,20.70
2019-02-01T04:17:25.390Z,21.12
2019-02-01T04:18:00.988Z,21.53
2019-02-01T04:18:36.570Z,21.07
2019-02-01T04:19:12.348Z,23.60
2019-02-01T04:19:50.511Z,23.30
2019-02-01T04:20:25.209Z,24.18
2019-02-01T04:21:00.851Z,25.05
2019-02-01T04:21:36.511Z,22.80
2019-02-01T04:22:12.448Z,23.17
2019-02-01T04:22:48.219Z,21.90
2019-02-01T04:23:23.903Z,24.10
2019-02-01T04:23:59.420Z,24.80
2019-02-01T04:24:35.228Z,28.30
2019-02-01T04:25:10.826Z,25.67
2019-02-01T04:25:46.422Z,26.15
2019-02-01T04:26:22.486Z,26.13
2019-02-01T04:26:58.052Z,26.80
2019-02-01T04:27:33.576Z,27.57
2019-02-01T04:28:09.261Z,23.10
2019-02-01T04:28:45.049Z,26.07
2019-02-01T04:29:20.563Z,25.07
2019-02-01T04:29:56.080Z,26.20
2019-02-01T04:30:31.934Z,25.00
2019-02-01T04:31:07.474Z,26.30
2019-02-01T04:31:43.104Z,26.75
2019-02-01T04:32:19.320Z,28.20
2019-02-01T04:32:54.933Z,28.10
2019-02-01T04:33:30.448Z,28.17
2019-02-01T04:34:06.195Z,30.72
2019-02-01T04:34:41.718Z,28.20
2019-02-01T04:35:17.263Z,30.03
2019-02-01T04:35:52.890Z,30.67
2019-02-01T04:36:28.513Z,31.12
2019-02-01T04:37:04.281Z,28.43
2019-02-01T04:37:39.855Z,28.07
2019-02-01T04:38:15.757Z,33.70
2019-02-01T04:38:51.367Z,28.83
2019-02-01T04:39:27.495Z,32.73
2019-02-01T04:40:03.105Z,29.90
2019-02-01T04:40:38.655Z,29.87
2019-02-01T04:41:14.180Z,30.57
2019-02-01T04:41:49.716Z,28.37
2019-02-01T04:42:25.276Z,29.30
2019-02-01T04:43:01.183Z,28.87
2019-02-01T04:43:36.758Z,29.77
2019-02-01T04:44:12.366Z,30.35
2019-02-01T04:44:47.912Z,29.03
2019-02-01T04:45:28.007Z,34.10
2019-02-01T04:46:03.533Z,34.13
2019-02-01T04:46:39.099Z,31.73
2019-02-01T04:47:14.923Z,30.93
2019-02-01T04:47:50.439Z,31.67
2019-02-01T04:48:28.935Z,33.78
2019-02-01T04:49:04.955Z,33.43
2019-02-01T04:49:40.463Z,32.00
2019-02-01T04:50:16.097Z,31.90
2019-02-01T04:50:51.636Z,32.03
2019-02-01T04:51:27.832Z,31.68
2019-02-01T04:52:03.439Z,33.73
2019-02-01T04:52:38.963Z,31.10
2019-02-01T04:53:15.094Z,31.57
2019-02-01T04:53:51.040Z,31.33
2019-02-01T04:54:26.683Z,36.03
2019-02-01T04:55:02.246Z,32.00
2019-02-01T04:55:37.781Z,32.10
2019-02-01T04:56:13.588Z,31.93
2019-02-01T04:56:49.322Z,31.90
2019-02-01T04:57:24.974Z,33.10
2019-02-01T04:58:00.745Z,33.17
2019-02-01T04:58:36.413Z,30.70
2019-02-01T04:59:12.285Z,30.60
2019-02-01T04:59:47.855Z,31.03
2019-02-01T05:00:33.683Z,30.73
2019-02-01T05:01:09.539Z,33.83
2019-02-01T05:01:45.155Z,33.77
2019-02-01T05:02:21.001Z,32.10
2019-02-01T05:02:56.692Z,33.30
2019-02-01T05:03:32.241Z,33.43
2019-02-01T05:04:08.022Z,34.48
2019-02-01T05:04:43.543Z,34.30
2019-02-01T05:05:19.321Z,35.07
2019-02-01T05:05:54.864Z,38.57
2019-02-01T05:06:30.415Z,34.20
2019-02-01T05:07:06.035Z,34.50
2019-02-01T05:07:41.927Z,35.63
2019-02-01T05:08:17.872Z,32.10
2019-02-01T05:08:56.506Z,33.40
2019-02-01T05:09:30.939Z,32.23
2019-02-01T05:10:07.614Z,32.70
2019-02-01T05:10:43.187Z,34.07
2019-02-01T05:11:18.703Z,31.67
2019-02-01T05:11:54.495Z,34.40
2019-02-01T05:12:30.193Z,34.03
2019-02-01T05:13:06.276Z,34.03
2019-02-01T05:13:41.793Z,30.93
2019-02-01T05:14:17.609Z,34.13
2019-02-01T05:14:53.439Z,33.97
2019-02-01T05:15:28.994Z,34.53
2019-02-01T05:16:04.593Z,34.47
2019-02-01T05:16:40.750Z,32.33
2019-02-01T05:17:16.524Z,32.93
2019-02-01T05:17:52.076Z,32.97
2019-02-01T05:18:27.942Z,31.37
2019-02-01T05:19:03.483Z,32.30
2019-02-01T05:19:39.297Z,29.87
2019-02-01T05:20:20.493Z,35.03
2019-02-01T05:20:53.919Z,33.23
2019-02-01T05:21:29.481Z,39.07
2019-02-01T05:22:05.059Z,34.78
2019-02-01T05:22:40.747Z,35.50
2019-02-01T05:23:16.349Z,33.70
2019-02-01T05:23:52.157Z,34.90
2019-02-01T05:24:28.043Z,33.53
2019-02-01T05:25:03.767Z,35.03
2019-02-01T05:25:39.675Z,35.77
2019-02-01T05:26:15.222Z,35.00
2019-02-01T05:26:50.829Z,34.40
2019-02-01T05:27:26.342Z,35.10
2019-02-01T05:28:01.931Z,33.97
2019-02-01T05:28:37.763Z,35.60
2019-02-01T05:29:13.322Z,38.43
2019-02-01T05:29:48.868Z,39.17
2019-02-01T05:30:24.408Z,31.80
2019-02-01T05:31:00.099Z,32.40
2019-02-01T05:31:35.642Z,32.30
2019-02-01T05:32:11.195Z,34.13
2019-02-01T05:32:46.733Z,36.00
2019-02-01T05:33:22.269Z,37.87
2019-02-01T05:33:57.803Z,32.37
2019-02-01T05:34:33.753Z,36.03
2019-02-01T05:35:10.649Z,36.28
2019-02-01T05:35:46.170Z,34.40
2019-02-01T05:36:21.686Z,33.20
2019-02-01T05:36:57.300Z,32.67
2019-02-01T05:37:33.089Z,34.58
2019-02-01T05:38:08.892Z,32.00
2019-02-01T05:38:44.417Z,33.10
2019-02-01T05:39:19.951Z,32.77
2019-02-01T05:39:57.325Z,34.33
2019-02-01T05:40:32.864Z,32.37
2019-02-01T05:41:08.659Z,34.80
2019-02-01T05:41:44.190Z,34.47
2019-02-01T05:42:19.980Z,35.23
2019-02-01T05:42:58.092Z,34.83
2019-02-01T05:43:32.834Z,34.38
2019-02-01T05:44:08.375Z,34.07
2019-02-01T05:44:44.217Z,34.50
2019-02-01T05:45:21.381Z,36.30
2019-02-01T05:45:56.992Z,34.70
2019-02-01T05:46:32.605Z,33.10
2019-02-01T05:47:08.388Z,33.13
2019-02-01T05:47:43.981Z,34.27
2019-02-01T05:48:19.511Z,37.50
2019-02-01T05:48:55.457Z,32.70
2019-02-01T05:49:31.047Z,34.00
2019-02-01T05:50:08.987Z,31.17
2019-02-01T05:50:44.551Z,38.07
2019-02-01T05:51:20.081Z,32.27
2019-02-01T05:51:55.894Z,33.03
2019-02-01T05:52:31.458Z,34.27
2019-02-01T05:53:07.048Z,34.13
2019-02-01T05:53:42.598Z,33.00
2019-02-01T05:54:18.148Z,34.70
2019-02-01T05:54:54.065Z,33.87
2019-02-01T05:55:29.582Z,31.33
2019-02-01T05:56:05.140Z,37.83
2019-02-01T05:56:40.720Z,34.63
2019-02-01T05:57:16.326Z,33.80
2019-02-01T05:57:51.912Z,33.87
2019-02-01T05:58:27.431Z,31.77
2019-02-01T05:59:02.984Z,31.77
2019-02-01T05:59:38.821Z,33.67
2019-02-01T06:00:17.267Z,33.30
2019-02-01T06:00:52.796Z,31.03
2019-02-01T06:01:28.383Z,30.40
2019-02-01T06:02:03.911Z,33.20
2019-02-01T06:02:39.456Z,37.17
2019-02-01T06:03:15.119Z,31.80
2019-02-01T06:03:51.527Z,31.97
2019-02-01T06:04:27.475Z,33.73
2019-02-01T06:05:03.167Z,32.00
2019-02-01T06:05:38.735Z,31.60
2019-02-01T06:06:14.548Z,33.67
2019-02-01T06:06:50.086Z,30.43
2019-02-01T06:07:25.675Z,38.00
2019-02-01T06:08:01.203Z,31.70
2019-02-01T06:08:37.247Z,32.87
2019-02-01T06:09:13.019Z,32.33
2019-02-01T06:09:48.651Z,34.70
2019-02-01T06:10:24.260Z,32.13
2019-02-01T06:10:59.810Z,30.97
2019-02-01T06:11:35.649Z,28.57
2019-02-01T06:12:11.168Z,28.50
2019-02-01T06:12:47.587Z,34.53
2019-02-01T06:13:24.098Z,33.10
2019-02-01T06:13:59.611Z,33.43
2019-02-01T06:14:35.146Z,33.90
2019-02-01T06:15:10.776Z,34.07
2019-02-01T06:15:46.307Z,31.30
2019-02-01T06:16:22.075Z,33.13
2019-02-01T06:16:57.615Z,31.23
2019-02-01T06:17:33.148Z,33.00
2019-02-01T06:18:08.713Z,31.90
2019-02-01T06:18:44.287Z,33.93
2019-02-01T06:19:20.149Z,32.90
2019-02-01T06:19:55.687Z,33.60
2019-02-01T06:20:39.883Z,39.40
2019-02-01T06:21:08.876Z,32.90
2019-02-01T06:21:44.653Z,33.50
2019-02-01T06:22:20.447Z,34.90
2019-02-01T06:22:55.965Z,36.27
2019-02-01T06:23:31.747Z,35.57
2019-02-01T06:24:07.304Z,35.87
2019-02-01T06:24:42.839Z,33.60
2019-02-01T06:25:18.410Z,32.67
2019-02-01T06:25:54.108Z,35.07
2019-02-01T06:26:29.870Z,33.07
2019-02-01T06:27:05.391Z,37.23
2019-02-01T06:27:41.158Z,33.33
2019-02-01T06:28:17.260Z,33.33
2019-02-01T06:28:52.923Z,33.30
2019-02-01T06:29:28.732Z,33.13
2019-02-01T06:30:04.548Z,33.80
2019-02-01T06:30:40.147Z,37.80
2019-02-01T06:31:15.688Z,34.20
2019-02-01T06:31:51.235Z,32.53
2019-02-01T06:32:26.773Z,31.80
2019-02-01T06:33:02.304Z,33.07
2019-02-01T06:33:37.941Z,33.93
2019-02-01T06:34:13.584Z,35.43
2019-02-01T06:34:49.140Z,36.17
2019-02-01T06:35:24.781Z,32.90
2019-02-01T06:36:00.379Z,32.53
2019-02-01T06:36:36.159Z,30.60
2019-02-01T06:37:12.001Z,34.47
2019-02-01T06:37:47.940Z,34.87
2019-02-01T06:38:23.503Z,35.60
2019-02-01T06:38:59.294Z,33.57
2019-02-01T06:39:34.895Z,34.60
2019-02-01T06:40:12.827Z,34.20
2019-02-01T06:40:48.439Z,32.20
2019-02-01T06:41:24.050Z,33.17
2019-02-01T06:41:59.695Z,31.57
2019-02-01T06:42:35.211Z,31.17
2019-02-01T06:43:11.078Z,32.10
2019-02-01T06:43:46.583Z,30.97
2019-02-01T06:44:22.141Z,32.73
2019-02-01T06:44:58.088Z,33.03
2019-02-01T06:45:33.876Z,31.90
2019-02-01T06:46:09.423Z,34.20
2019-02-01T06:46:44.935Z,32.00
2019-02-01T06:47:21.666Z,32.77
2019-02-01T06:47:57.711Z,31.67
2019-02-01T06:48:35.695Z,33.23
2019-02-01T06:49:11.203Z,31.67
2019-02-01T06:49:51.999Z,32.97
2019-02-01T06:50:53.079Z,32.17
2019-02-01T06:51:32.576Z,33.20
2019-02-01T06:52:08.123Z,33.47
2019-02-01T06:52:43.691Z,30.20
2019-02-01T06:53:26.711Z,32.97
2019-02-01T06:54:02.307Z,32.77
2019-02-01T06:54:37.830Z,33.37
2019-02-01T06:55:13.379Z,41.33
2019-02-01T06:55:49.456Z,31.70
2019-02-01T06:56:25.058Z,33.67
2019-02-01T06:57:00.700Z,33.37
2019-02-01T06:57:36.797Z,30.70
2019-02-01T06:58:12.387Z,30.27
2019-02-01T06:58:48.158Z,29.27
2019-02-01T06:59:23.689Z,31.27
2019-02-01T06:59:59.201Z,44.10
2019-02-01T07:00:37.736Z,34.07
2019-02-01T07:01:13.297Z,34.43
2019-02-01T07:01:49.091Z,29.67
2019-02-01T07:02:24.628Z,29.27
2019-02-01T07:03:00.155Z,33.37
2019-02-01T07:04:00.933Z,36.37
2019-02-01T07:04:41.747Z,31.33
2019-02-01T07:05:22.035Z,29.20
2019-02-01T07:05:57.564Z,33.17
2019-02-01T07:06:39.436Z,31.83
2019-02-01T07:07:37.095Z,32.60
2019-02-01T07:08:20.455Z,26.60
2019-02-01T07:09:14.359Z,30.03
2019-02-01T07:10:09.137Z,32.30
2019-02-01T07:11:09.859Z,33.23
2019-02-01T07:12:10.358Z,30.67
2019-02-01T07:12:55.751Z,30.90
2019-02-01T07:13:36.527Z,31.23
2019-02-01T07:14:28.982Z,32.57
2019-02-01T07:15:13.589Z,31.90
2019-02-01T07:16:23.514Z,30.97
2019-02-01T07:17:17.565Z,29.67
2019-02-01T07:18:24.427Z,33.17
2019-02-01T07:19:21.745Z,33.23
2019-02-01T07:20:15.057Z,36.07
2019-02-01T07:21:19.043Z,34.40
2019-02-01T07:22:09.016Z,31.03
2019-02-01T07:22:53.849Z,37.73
2019-02-01T07:23:51.507Z,31.97
2019-02-01T07:24:45.963Z,29.80
2019-02-01T07:25:55.920Z,30.30
2019-02-01T07:26:41.033Z,33.77
2019-02-01T07:27:26.613Z,34.13
2019-02-01T07:28:12.340Z,32.03
2019-02-01T07:29:03.290Z,30.87
2019-02-01T07:30:13.268Z,29.63
2019-02-01T07:30:55.087Z,34.87
2019-02-01T07:31:43.741Z,29.90
2019-02-01T07:32:30.804Z,30.97
2019-02-01T07:33:18.563Z,32.50
2019-02-01T07:33:57.659Z,30.73
2019-02-01T07:34:33.431Z,33.23
2019-02-01T07:35:10.450Z,32.97
2019-02-01T07:35:46.222Z,33.53
2019-02-01T07:36:21.741Z,31.33
2019-02-01T07:36:57.255Z,28.23
2019-02-01T07:37:32.782Z,30.10
2019-02-01T07:38:09.036Z,29.10
2019-02-01T07:38:44.547Z,28.43
2019-02-01T07:39:20.151Z,28.70
2019-02-01T07:39:55.945Z,29.73
2019-02-01T07:40:31.472Z,29.40
2019-02-01T07:41:07.207Z,23.67
2019-02-01T07:41:42.747Z,27.23
2019-02-01T07:42:18.287Z,24.83
2019-02-01T07:42:53.823Z,30.13
2019-02-01T07:43:29.337Z,24.27
2019-02-01T07:44:06.751Z,26.97
2019-02-01T07:44:42.348Z,24.50
2019-02-01T07:45:19.828Z,26.27
2019-02-01T07:45:55.372Z,29.43
2019-02-01T07:46:31.063Z,26.53
2019-02-01T07:47:06.580Z,32.23
2019-02-01T07:47:42.380Z,24.73
2019-02-01T07:48:17.901Z,24.67
2019-02-01T07:48:53.679Z,25.10
2019-02-01T07:49:29.481Z,26.33
2019-02-01T07:50:05.399Z,26.97
2019-02-01T07:50:41.263Z,24.80
2019-02-01T07:51:16.774Z,24.07
2019-02-01T07:51:52.763Z,25.30